| time (UTC) | temp C | wind direction | speed KPH | gust KPH | rain 1hr cm | rain 24hr cm | rain mn cm | humidity % | barometer mb |
| 20260507101504 | 3 | 55 | 0.0 | 1.6 | 0.00 | 0.00 | 0.00 | 68 | 1010.4 |
| 20260507101003 | 3 | 55 | 0.0 | 1.6 | 0.00 | 0.00 | 0.00 | 68 | 1010.4 |
| 20260507100004 | 3 | 55 | 0.0 | 1.6 | 0.00 | 0.00 | 0.00 | 68 | 1010.6 |
| 20260507095504 | 3 | 55 | 0.0 | 1.6 | 0.00 | 0.00 | 0.00 | 68 | 1010.6 |
| 20260507095003 | 3 | 55 | 0.0 | 1.6 | 0.00 | 0.00 | 0.00 | 68 | 1010.6 |
| 20260507094504 | 3 | 55 | 0.0 | 1.6 | 0.00 | 0.00 | 0.00 | 68 | 1010.7 |
| 20260507094003 | 3 | 55 | 0.0 | 1.6 | 0.00 | 0.00 | 0.00 | 68 | 1010.7 |
| 20260507093003 | 3 | 55 | 0.0 | 1.6 | 0.00 | 0.00 | 0.00 | 68 | 1010.6 |
| 20260507092504 | 3 | 55 | 0.0 | 1.6 | 0.00 | 0.00 | 0.00 | 68 | 1010.6 |
| 20260507092004 | 3 | 55 | 0.0 | 1.6 | 0.00 | 0.00 | 0.00 | 68 | 1010.6 |
| 20260507091504 | 3 | 55 | 0.0 | 1.6 | 0.00 | 0.00 | 0.00 | 68 | 1010.8 |
| 20260507091004 | 3 | 55 | 0.0 | 1.6 | 0.00 | 0.00 | 0.00 | 68 | 1010.8 |
| 20260507090504 | 3 | 55 | 0.0 | 1.6 | 0.00 | 0.00 | 0.00 | 68 | 1010.8 |
| 20260507085504 | 3 | 55 | 0.0 | 1.6 | 0.00 | 0.00 | 0.00 | 68 | 1010.7 |
| 20260507085004 | 3 | 55 | 0.0 | 1.6 | 0.00 | 0.00 | 0.00 | 69 | 1010.7 |
| 20260507084504 | 3 | 48 | 0.0 | 3.2 | 0.00 | 0.00 | 0.00 | 69 | 1010.7 |
| 20260507084004 | 3 | 48 | 0.0 | 3.2 | 0.00 | 0.00 | 0.00 | 68 | 1010.7 |
| 20260507083504 | 3 | 0 | 0.0 | 0.0 | 0.00 | 0.00 | 0.00 | 68 | 1010.7 |
| 20260507083004 | 3 | 283 | 0.0 | 1.6 | 0.00 | 0.00 | 0.00 | 68 | 1010.7 |
| 20260507082504 | 3 | 289 | 0.0 | 1.6 | 0.00 | 0.00 | 0.00 | 68 | 1010.7 |
| 20260507082003 | 3 | 66 | 0.0 | 3.2 | 0.00 | 0.00 | 0.00 | 68 | 1010.7 |
| 20260507081504 | 3 | 66 | 0.0 | 3.2 | 0.00 | 0.00 | 0.00 | 68 | 1010.7 |
| 20260507081004 | 3 | 331 | 0.0 | 1.6 | 0.00 | 0.00 | 0.00 | 67 | 1010.7 |
| 20260507080504 | 3 | 331 | 0.0 | 1.6 | 0.00 | 0.00 | 0.00 | 67 | 1010.7 |
| 20260507080005 | 3 | 0 | 0.0 | 0.0 | 0.00 | 0.00 | 0.00 | 67 | 1010.8 |
| 20260507075504 | 3 | 306 | 0.0 | 3.2 | 0.00 | 0.00 | 0.00 | 68 | 1010.8 |
| 20260507074003 | 3 | 318 | 1.6 | 6.4 | 0.00 | 0.00 | 0.00 | 69 | 1010.7 |
| 20260507073504 | 3 | 314 | 0.0 | 4.8 | 0.00 | 0.00 | 0.00 | 70 | 1010.7 |
| 20260507073004 | 3 | 314 | 0.0 | 1.6 | 0.00 | 0.00 | 0.00 | 69 | 1010.7 |
| 20260507072503 | 4 | 314 | 0.0 | 3.2 | 0.00 | 0.00 | 0.00 | 69 | 1010.7 |
| 20260507071504 | 4 | 322 | 0.0 | 4.8 | 0.00 | 0.00 | 0.00 | 69 | 1010.7 |
| 20260507070504 | 4 | 358 | 0.0 | 6.4 | 0.00 | 0.00 | 0.00 | 67 | 1010.7 |
| 20260507070008 | 5 | 53 | 0.0 | 3.2 | 0.00 | 0.00 | 0.00 | 68 | 1010.7 |
| 20260507065503 | 5 | 32 | 0.0 | 3.2 | 0.00 | 0.00 | 0.00 | 67 | 1010.7 |
| 20260507065004 | 5 | 321 | 0.0 | 4.8 | 0.00 | 0.00 | 0.00 | 66 | 1010.7 |
| 20260507064504 | 5 | 320 | 0.0 | 4.8 | 0.00 | 0.00 | 0.00 | 66 | 1010.7 |
| 20260507064004 | 5 | 62 | 0.0 | 1.6 | 0.00 | 0.00 | 0.00 | 64 | 1010.7 |
| 20260507063004 | 5 | 62 | 0.0 | 1.6 | 0.00 | 0.00 | 0.00 | 62 | 1010.8 |
| 20260507062504 | 5 | 61 | 0.0 | 1.6 | 0.00 | 0.00 | 0.00 | 62 | 1010.8 |
| 20260507062004 | 5 | 60 | 0.0 | 1.6 | 0.00 | 0.00 | 0.00 | 61 | 1010.8 |
| 20260507061504 | 6 | 0 | 0.0 | 0.0 | 0.00 | 0.00 | 0.00 | 61 | 1010.8 |
| 20260507061004 | 6 | 316 | 0.0 | 3.2 | 0.00 | 0.00 | 0.00 | 61 | 1010.8 |
| 20260507060504 | 6 | 316 | 0.0 | 3.2 | 0.00 | 0.00 | 0.00 | 60 | 1010.8 |
| 20260507060004 | 6 | 316 | 0.0 | 3.2 | 0.00 | 0.00 | 0.00 | 60 | 1011.1 |
| 20260507055504 | 6 | 316 | 0.0 | 3.2 | 0.00 | 0.00 | 0.00 | 60 | 1011.1 |
| 20260507054504 | 6 | 316 | 0.0 | 8.0 | 0.00 | 0.00 | 0.00 | 58 | 1011.1 |
| 20260507054003 | 6 | 316 | 0.0 | 8.0 | 0.00 | 0.00 | 0.00 | 57 | 1011.1 |
| 20260507053504 | 6 | 313 | 1.6 | 8.0 | 0.00 | 0.00 | 0.00 | 57 | 1011.1 |
| 20260507052504 | 6 | 310 | 0.0 | 4.8 | 0.00 | 0.00 | 0.00 | 58 | 1011.2 |
| 20260507051504 | 6 | 311 | 0.0 | 4.8 | 0.00 | 0.00 | 0.00 | 57 | 1011.2 |
| 20260507051004 | 6 | 312 | 0.0 | 4.8 | 0.00 | 0.00 | 0.00 | 57 | 1011.2 |
| 20260507050504 | 6 | 311 | 0.0 | 4.8 | 0.00 | 0.00 | 0.00 | 57 | 1011.2 |
| 20260507050005 | 6 | 308 | 0.0 | 4.8 | 0.00 | 0.00 | 0.00 | 57 | 1011.2 |
| 20260507045504 | 6 | 308 | 0.0 | 4.8 | 0.00 | 0.00 | 0.00 | 57 | 1011.2 |
| 20260507045004 | 6 | 0 | 0.0 | 0.0 | 0.00 | 0.00 | 0.00 | 57 | 1011.2 |
| 20260507044504 | 6 | 0 | 0.0 | 0.0 | 0.00 | 0.00 | 0.00 | 57 | 1011.1 |
| 20260507044004 | 6 | 0 | 0.0 | 0.0 | 0.00 | 0.00 | 0.00 | 57 | 1011.1 |
| 20260507043504 | 6 | 0 | 0.0 | 0.0 | 0.00 | 0.00 | 0.00 | 57 | 1011.1 |
| 20260507043004 | 7 | 298 | 0.0 | 3.2 | 0.00 | 0.00 | 0.00 | 56 | 1011.1 |
| 20260507042004 | 7 | 299 | 0.0 | 3.2 | 0.00 | 0.00 | 0.00 | 55 | 1011.1 |
| 20260507041504 | 7 | 297 | 0.0 | 4.8 | 0.00 | 0.00 | 0.00 | 55 | 1011.0 |
| 20260507041003 | 7 | 294 | 1.6 | 4.8 | 0.00 | 0.00 | 0.00 | 54 | 1011.0 |
| 20260507040005 | 7 | 294 | 1.6 | 4.8 | 0.00 | 0.00 | 0.00 | 53 | 1011.1 |
| 20260507035504 | 7 | 293 | 1.6 | 4.8 | 0.00 | 0.00 | 0.00 | 53 | 1011.1 |
| 20260507035003 | 7 | 292 | 0.0 | 6.4 | 0.00 | 0.00 | 0.00 | 53 | 1011.1 |
| 20260507034004 | 7 | 311 | 0.0 | 4.8 | 0.00 | 0.00 | 0.00 | 53 | 1011.0 |
| 20260507033504 | 7 | 305 | 0.0 | 4.8 | 0.00 | 0.00 | 0.00 | 53 | 1011.0 |
| 20260507033004 | 7 | 302 | 1.6 | 4.8 | 0.00 | 0.00 | 0.00 | 51 | 1011.2 |
| 20260507032504 | 7 | 301 | 1.6 | 4.8 | 0.00 | 0.00 | 0.00 | 51 | 1011.2 |
| 20260507032003 | 7 | 302 | 0.0 | 4.8 | 0.00 | 0.00 | 0.00 | 51 | 1011.2 |
| 20260507031504 | 7 | 295 | 0.0 | 4.8 | 0.00 | 0.00 | 0.00 | 51 | 1011.1 |
| 20260507031004 | 7 | 301 | 0.0 | 4.8 | 0.00 | 0.00 | 0.00 | 51 | 1011.1 |
| 20260507030004 | 7 | 303 | 1.6 | 4.8 | 0.00 | 0.00 | 0.00 | 50 | 1010.9 |
| 20260507025504 | 7 | 307 | 0.0 | 4.8 | 0.00 | 0.00 | 0.00 | 50 | 1010.9 |
| 20260507025004 | 7 | 303 | 0.0 | 4.8 | 0.00 | 0.00 | 0.00 | 50 | 1010.9 |
| 20260507024504 | 7 | 309 | 0.0 | 4.8 | 0.00 | 0.00 | 0.00 | 49 | 1010.9 |
| 20260507024004 | 7 | 316 | 0.0 | 4.8 | 0.00 | 0.00 | 0.00 | 50 | 1010.9 |
| 20260507023504 | 7 | 309 | 1.6 | 6.4 | 0.00 | 0.00 | 0.00 | 50 | 1010.9 |
| 20260507023004 | 8 | 307 | 1.6 | 6.4 | 0.00 | 0.00 | 0.00 | 50 | 1010.8 |
| 20260507022504 | 8 | 312 | 0.0 | 4.8 | 0.00 | 0.00 | 0.00 | 49 | 1010.8 |
| 20260507022003 | 8 | 314 | 0.0 | 4.8 | 0.00 | 0.00 | 0.00 | 49 | 1010.8 |
| 20260507021504 | 8 | 311 | 0.0 | 4.8 | 0.00 | 0.00 | 0.00 | 49 | 1010.8 |
| 20260507021004 | 8 | 308 | 0.0 | 1.6 | 0.00 | 0.00 | 0.00 | 49 | 1010.8 |
| 20260507020504 | 8 | 318 | 0.0 | 3.2 | 0.00 | 0.00 | 0.00 | 49 | 1010.8 |
| 20260507015004 | 8 | 306 | 0.0 | 6.4 | 0.00 | 0.00 | 0.00 | 46 | 1010.7 |
| 20260507014504 | 8 | 309 | 1.6 | 8.0 | 0.00 | 0.00 | 0.00 | 46 | 1010.6 |
| 20260507014004 | 8 | 312 | 1.6 | 9.7 | 0.00 | 0.00 | 0.00 | 46 | 1010.6 |
| 20260507013504 | 8 | 311 | 1.6 | 9.7 | 0.00 | 0.00 | 0.00 | 45 | 1010.6 |
| 20260507013004 | 9 | 307 | 3.2 | 8.0 | 0.00 | 0.00 | 0.00 | 45 | 1010.5 |
| 20260507012504 | 9 | 304 | 3.2 | 8.0 | 0.00 | 0.00 | 0.00 | 44 | 1010.5 |
| 20260507012004 | 9 | 308 | 3.2 | 11.3 | 0.00 | 0.00 | 0.00 | 43 | 1010.5 |
| 20260507011503 | 9 | 301 | 4.8 | 11.3 | 0.00 | 0.00 | 0.00 | 42 | 1010.3 |
| 20260507011004 | 10 | 294 | 4.8 | 12.9 | 0.00 | 0.00 | 0.00 | 42 | 1010.3 |
| 20260507010004 | 10 | 307 | 4.8 | 14.5 | 0.00 | 0.00 | 0.00 | 43 | 1010.3 |
| 20260507005504 | 10 | 310 | 6.4 | 14.5 | 0.00 | 0.00 | 0.00 | 43 | 1010.3 |
| 20260507005004 | 10 | 306 | 4.8 | 12.9 | 0.00 | 0.00 | 0.00 | 43 | 1010.3 |
| 20260507004504 | 10 | 305 | 6.4 | 14.5 | 0.00 | 0.00 | 0.00 | 42 | 1010.1 |
| 20260507004004 | 10 | 307 | 4.8 | 14.5 | 0.00 | 0.00 | 0.00 | 42 | 1010.1 |
| 20260507003503 | 10 | 310 | 3.2 | 12.9 | 0.00 | 0.00 | 0.00 | 42 | 1010.1 |
| 20260507003004 | 10 | 308 | 4.8 | 12.9 | 0.00 | 0.00 | 0.00 | 43 | 1009.9 |
| 20260507002503 | 10 | 305 | 6.4 | 17.7 | 0.00 | 0.00 | 0.00 | 42 | 1009.9 |
| 20260507002004 | 10 | 308 | 8.0 | 17.7 | 0.00 | 0.00 | 0.00 | 42 | 1009.9 |
| 20260507001004 | 10 | 309 | 6.4 | 16.1 | 0.00 | 0.00 | 0.00 | 42 | 1009.8 |
| 20260507000503 | 10 | 302 | 4.8 | 16.1 | 0.00 | 0.00 | 0.00 | 41 | 1009.8 |
| 20260507000004 | 10 | 306 | 4.8 | 14.5 | 0.00 | 0.00 | 0.00 | 42 | 1009.7 |
| 20260506234504 | 10 | 306 | 6.4 | 17.7 | 0.00 | 0.00 | 0.00 | 40 | 1009.6 |
| 20260506234003 | 10 | 309 | 4.8 | 12.9 | 0.00 | 0.00 | 0.00 | 41 | 1009.6 |
| 20260506233504 | 10 | 303 | 6.4 | 17.7 | 0.00 | 0.00 | 0.00 | 40 | 1009.6 |
| 20260506233004 | 10 | 297 | 6.4 | 17.7 | 0.00 | 0.00 | 0.00 | 40 | 1009.6 |
| 20260506232504 | 10 | 303 | 4.8 | 14.5 | 0.00 | 0.00 | 0.00 | 39 | 1009.6 |
| 20260506232004 | 10 | 311 | 4.8 | 12.9 | 0.00 | 0.00 | 0.00 | 39 | 1009.6 |
| 20260506231504 | 10 | 312 | 6.4 | 17.7 | 0.00 | 0.00 | 0.00 | 39 | 1009.6 |
| 20260506230503 | 11 | 298 | 6.4 | 16.1 | 0.00 | 0.00 | 0.00 | 40 | 1009.6 |
| 20260506230004 | 11 | 298 | 4.8 | 16.1 | 0.00 | 0.00 | 0.00 | 38 | 1009.6 |
| 20260506225504 | 11 | 298 | 4.8 | 12.9 | 0.00 | 0.00 | 0.00 | 38 | 1009.6 |
| 20260506225004 | 11 | 300 | 6.4 | 12.9 | 0.00 | 0.00 | 0.00 | 39 | 1009.6 |
| 20260506224003 | 11 | 304 | 6.4 | 14.5 | 0.00 | 0.00 | 0.00 | 38 | 1009.5 |
| 20260506223504 | 11 | 306 | 4.8 | 14.5 | 0.00 | 0.00 | 0.00 | 38 | 1009.5 |
| 20260506223004 | 11 | 305 | 3.2 | 11.3 | 0.00 | 0.00 | 0.00 | 38 | 1009.6 |
| 20260506222504 | 11 | 306 | 4.8 | 11.3 | 0.00 | 0.00 | 0.00 | 39 | 1009.6 |
| 20260506222004 | 11 | 311 | 4.8 | 11.3 | 0.00 | 0.00 | 0.00 | 38 | 1009.6 |
| 20260506221504 | 11 | 310 | 3.2 | 11.3 | 0.00 | 0.00 | 0.00 | 38 | 1009.5 |
| 20260506221004 | 11 | 304 | 1.6 | 6.4 | 0.00 | 0.00 | 0.00 | 38 | 1009.5 |
| 20260506220504 | 11 | 302 | 3.2 | 8.0 | 0.00 | 0.00 | 0.00 | 38 | 1009.5 |
| 20260506220004 | 11 | 301 | 4.8 | 11.3 | 0.00 | 0.00 | 0.00 | 39 | 1009.5 |
| 20260506215504 | 11 | 299 | 8.0 | 20.9 | 0.00 | 0.00 | 0.00 | 41 | 1009.5 |
| 20260506215004 | 11 | 298 | 8.0 | 20.9 | 0.00 | 0.00 | 0.00 | 37 | 1009.5 |
| 20260506214004 | 11 | 297 | 8.0 | 16.1 | 0.00 | 0.00 | 0.00 | 38 | 1009.4 |
| 20260506213504 | 11 | 297 | 8.0 | 20.9 | 0.00 | 0.00 | 0.00 | 38 | 1009.4 |
| 20260506213004 | 11 | 299 | 6.4 | 20.9 | 0.00 | 0.00 | 0.00 | 37 | 1009.5 |
| 20260506212503 | 11 | 299 | 8.0 | 16.1 | 0.00 | 0.00 | 0.00 | 40 | 1009.5 |
| 20260506212004 | 11 | 302 | 8.0 | 16.1 | 0.00 | 0.00 | 0.00 | 39 | 1009.5 |
| 20260506211504 | 11 | 299 | 8.0 | 16.1 | 0.00 | 0.00 | 0.00 | 39 | 1009.5 |
| 20260506211004 | 11 | 297 | 9.7 | 22.5 | 0.00 | 0.00 | 0.00 | 38 | 1009.5 |
| 20260506210503 | 11 | 301 | 9.7 | 22.5 | 0.00 | 0.00 | 0.00 | 38 | 1009.5 |
| 20260506210004 | 11 | 303 | 8.0 | 17.7 | 0.00 | 0.00 | 0.00 | 39 | 1009.5 |
| 20260506205504 | 11 | 307 | 8.0 | 25.7 | 0.00 | 0.00 | 0.00 | 41 | 1009.5 |
| 20260506205003 | 11 | 307 | 8.0 | 25.7 | 0.00 | 0.00 | 0.00 | 41 | 1009.5 |
| 20260506204004 | 11 | 299 | 6.4 | 19.3 | 0.00 | 0.00 | 0.00 | 40 | 1009.7 |
| 20260506203004 | 11 | 299 | 8.0 | 17.7 | 0.00 | 0.00 | 0.00 | 40 | 1009.7 |
| 20260506202504 | 11 | 301 | 11.3 | 19.3 | 0.00 | 0.00 | 0.00 | 40 | 1009.7 |
| 20260506202004 | 11 | 302 | 9.7 | 19.3 | 0.00 | 0.00 | 0.00 | 40 | 1009.7 |
| 20260506200504 | 11 | 305 | 11.3 | 20.9 | 0.00 | 0.00 | 0.00 | 39 | 1009.7 |
| 20260506195504 | 11 | 286 | 3.2 | 12.9 | 0.00 | 0.00 | 0.00 | 38 | 1009.7 |
| 20260506195004 | 11 | 277 | 3.2 | 9.7 | 0.00 | 0.00 | 0.00 | 42 | 1009.7 |
| 20260506194004 | 11 | 298 | 6.4 | 19.3 | 0.00 | 0.00 | 0.00 | 41 | 1009.9 |
| 20260506193504 | 11 | 298 | 8.0 | 19.3 | 0.00 | 0.00 | 0.00 | 39 | 1009.9 |
| 20260506193004 | 10 | 296 | 6.4 | 19.3 | 0.00 | 0.00 | 0.00 | 39 | 1009.9 |
| 20260506192504 | 11 | 292 | 3.2 | 16.1 | 0.00 | 0.00 | 0.00 | 39 | 1009.9 |
| 20260506192004 | 10 | 308 | 1.6 | 9.7 | 0.00 | 0.00 | 0.00 | 41 | 1009.9 |
| 20260506191503 | 10 | 301 | 3.2 | 12.9 | 0.00 | 0.00 | 0.00 | 41 | 1010.1 |
| 20260506190504 | 10 | 293 | 8.0 | 17.7 | 0.00 | 0.00 | 0.00 | 41 | 1010.1 |
| 20260506185504 | 11 | 293 | 4.8 | 16.1 | 0.00 | 0.00 | 0.00 | 39 | 1010.1 |
| 20260506185004 | 11 | 275 | 3.2 | 12.9 | 0.00 | 0.00 | 0.00 | 41 | 1010.1 |
| 20260506184004 | 10 | 313 | 1.6 | 11.3 | 0.00 | 0.00 | 0.00 | 45 | 1010.2 |
| 20260506183503 | 10 | 308 | 3.2 | 11.3 | 0.00 | 0.00 | 0.00 | 43 | 1010.2 |
| 20260506183005 | 10 | 299 | 6.4 | 14.5 | 0.00 | 0.00 | 0.00 | 43 | 1010.2 |
| 20260506182004 | 10 | 310 | 4.8 | 16.1 | 0.00 | 0.00 | 0.00 | 45 | 1010.2 |
| 20260506181504 | 10 | 313 | 4.8 | 16.1 | 0.00 | 0.00 | 0.00 | 43 | 1010.2 |
| 20260506181004 | 10 | 303 | 4.8 | 16.1 | 0.00 | 0.00 | 0.00 | 42 | 1010.3 |
| 20260506180504 | 10 | 300 | 6.4 | 17.7 | 0.00 | 0.00 | 0.00 | 43 | 1010.2 |
| 20260506174004 | 10 | 259 | 1.6 | 11.3 | 0.00 | 0.00 | 0.00 | 43 | 1010.6 |
| 20260506173504 | 10 | 211 | 3.2 | 12.9 | 0.00 | 0.00 | 0.00 | 43 | 1010.6 |
| 20260506172504 | 10 | 293 | 4.8 | 12.9 | 0.00 | 0.00 | 0.00 | 43 | 1010.7 |
| 20260506172004 | 10 | 296 | 6.4 | 16.1 | 0.00 | 0.00 | 0.00 | 43 | 1010.7 |
| 20260506171504 | 10 | 297 | 8.0 | 16.1 | 0.00 | 0.00 | 0.00 | 41 | 1010.6 |
| 20260506171004 | 10 | 298 | 6.4 | 16.1 | 0.00 | 0.00 | 0.00 | 44 | 1010.7 |
| 20260506170504 | 10 | 299 | 4.8 | 14.5 | 0.00 | 0.00 | 0.00 | 42 | 1010.6 |
| 20260506170004 | 10 | 300 | 6.4 | 16.1 | 0.00 | 0.00 | 0.00 | 42 | 1010.7 |
| 20260506165503 | 10 | 301 | 6.4 | 16.1 | 0.00 | 0.00 | 0.00 | 43 | 1010.7 |
| 20260506165004 | 10 | 292 | 3.2 | 14.5 | 0.00 | 0.00 | 0.00 | 46 | 1010.8 |
| 20260506164504 | 10 | 301 | 3.2 | 11.3 | 0.00 | 0.00 | 0.00 | 44 | 1010.8 |
| 20260506164004 | 10 | 309 | 1.6 | 11.3 | 0.00 | 0.00 | 0.00 | 50 | 1010.7 |
| 20260506163504 | 10 | 312 | 0.0 | 6.4 | 0.00 | 0.00 | 0.00 | 49 | 1010.7 |
| 20260506163004 | 9 | 299 | 1.6 | 11.3 | 0.00 | 0.00 | 0.00 | 48 | 1011.1 |
| 20260506162504 | 9 | 300 | 4.8 | 14.5 | 0.00 | 0.00 | 0.00 | 47 | 1011.1 |
| 20260506161004 | 10 | 308 | 3.2 | 12.9 | 0.00 | 0.00 | 0.00 | 47 | 1011.1 |
| 20260506160504 | 10 | 306 | 3.2 | 11.3 | 0.00 | 0.00 | 0.00 | 46 | 1011.1 |
| 20260506160004 | 10 | 247 | 3.2 | 9.7 | 0.00 | 0.00 | 0.00 | 49 | 1011.2 |
| 20260506155504 | 9 | 287 | 3.2 | 14.5 | 0.00 | 0.00 | 0.00 | 45 | 1011.3 |
| 20260506155004 | 8 | 301 | 3.2 | 14.5 | 0.00 | 0.00 | 0.00 | 50 | 1011.3 |
| 20260506154004 | 8 | 309 | 1.6 | 9.7 | 0.00 | 0.00 | 0.00 | 53 | 1011.3 |
| 20260506153504 | 8 | 310 | 1.6 | 9.7 | 0.00 | 0.00 | 0.00 | 50 | 1011.3 |
| 20260506153004 | 8 | 308 | 3.2 | 9.7 | 0.00 | 0.00 | 0.00 | 52 | 1011.3 |
| 20260506152504 | 8 | 304 | 1.6 | 9.7 | 0.00 | 0.00 | 0.00 | 54 | 1011.2 |
| 20260506151504 | 8 | 318 | 0.0 | 3.2 | 0.00 | 0.00 | 0.00 | 56 | 1011.1 |
| 20260506151004 | 8 | 307 | 0.0 | 4.8 | 0.00 | 0.00 | 0.00 | 54 | 1011.1 |
| 20260506150505 | 8 | 313 | 1.6 | 6.4 | 0.00 | 0.00 | 0.00 | 55 | 1011.1 |
| 20260506150004 | 7 | 318 | 1.6 | 9.7 | 0.00 | 0.00 | 0.00 | 58 | 1011.0 |
| 20260506145504 | 7 | 20 | 1.6 | 9.7 | 0.00 | 0.00 | 0.00 | 57 | 1011.0 |
| 20260506145004 | 7 | 73 | 1.6 | 6.4 | 0.00 | 0.00 | 0.00 | 56 | 1011.0 |
| 20260506144504 | 7 | 45 | 1.6 | 4.8 | 0.00 | 0.00 | 0.00 | 56 | 1010.9 |
| 20260506144004 | 7 | 323 | 1.6 | 8.0 | 0.00 | 0.00 | 0.00 | 59 | 1011.0 |
| 20260506143504 | 7 | 317 | 1.6 | 8.0 | 0.00 | 0.00 | 0.00 | 59 | 1010.9 |
| 20260506143004 | 7 | 326 | 0.0 | 6.4 | 0.00 | 0.00 | 0.00 | 58 | 1010.8 |
| 20260506142504 | 7 | 36 | 0.0 | 4.8 | 0.00 | 0.00 | 0.00 | 58 | 1010.8 |
| 20260506142005 | 7 | 20 | 0.0 | 4.8 | 0.00 | 0.00 | 0.00 | 60 | 1010.8 |
| 20260506141504 | 7 | 319 | 1.6 | 8.0 | 0.00 | 0.00 | 0.00 | 59 | 1010.7 |
| 20260506141005 | 6 | 20 | 1.6 | 8.0 | 0.00 | 0.00 | 0.00 | 62 | 1010.8 |
| 20260506140504 | 6 | 19 | 1.6 | 11.3 | 0.00 | 0.00 | 0.00 | 60 | 1010.8 |
| 20260506135505 | 6 | 15 | 1.6 | 11.3 | 0.00 | 0.00 | 0.00 | 63 | 1010.9 |
| 20260506135004 | 6 | 351 | 1.6 | 11.3 | 0.00 | 0.00 | 0.00 | 61 | 1010.8 |
| 20260506134504 | 6 | 313 | 0.0 | 6.4 | 0.00 | 0.00 | 0.00 | 62 | 1010.9 |
| 20260506134004 | 6 | 316 | 0.0 | 4.8 | 0.00 | 0.00 | 0.00 | 63 | 1010.9 |
| 20260506133504 | 6 | 345 | 1.6 | 4.8 | 0.00 | 0.00 | 0.00 | 64 | 1010.9 |
| 20260506133004 | 6 | 50 | 0.0 | 4.8 | 0.00 | 0.00 | 0.00 | 64 | 1010.9 |
| 20260506132004 | 5 | 358 | 0.0 | 4.8 | 0.00 | 0.00 | 0.00 | 64 | 1010.9 |
| 20260506131504 | 5 | 316 | 0.0 | 4.8 | 0.00 | 0.00 | 0.00 | 67 | 1010.7 |
| 20260506131004 | 5 | 23 | 1.6 | 8.0 | 0.00 | 0.00 | 0.00 | 67 | 1010.7 |
| 20260506130005 | 5 | 39 | 1.6 | 9.7 | 0.00 | 0.00 | 0.00 | 66 | 1010.8 |
| 20260506125504 | 5 | 348 | 0.0 | 4.8 | 0.00 | 0.00 | 0.00 | 67 | 1010.8 |
| 20260506125004 | 5 | 322 | 0.0 | 9.7 | 0.00 | 0.00 | 0.00 | 68 | 1010.8 |
| 20260506124504 | 5 | 322 | 0.0 | 9.7 | 0.00 | 0.00 | 0.00 | 67 | 1010.6 |
| 20260506124004 | 5 | 62 | 1.6 | 8.0 | 0.00 | 0.00 | 0.00 | 67 | 1010.6 |
| 20260506123004 | 5 | 29 | 0.0 | 4.8 | 0.00 | 0.00 | 0.00 | 67 | 1010.2 |
| 20260506122504 | 5 | 33 | 0.0 | 4.8 | 0.00 | 0.00 | 0.00 | 69 | 1010.2 |
| 20260506122004 | 4 | 42 | 0.0 | 6.4 | 0.00 | 0.00 | 0.00 | 71 | 1010.2 |
| 20260506121504 | 4 | 57 | 0.0 | 6.4 | 0.00 | 0.00 | 0.00 | 72 | 1009.9 |
| 20260506121004 | 3 | 57 | 1.6 | 8.0 | 0.00 | 0.00 | 0.00 | 73 | 1009.9 |
| 20260506115504 | 3 | 52 | 0.0 | 4.8 | 0.00 | 0.00 | 0.00 | 76 | 1009.6 |
| 20260506115004 | 3 | 66 | 1.6 | 4.8 | 0.00 | 0.00 | 0.00 | 76 | 1009.6 |
| 20260506114504 | 2 | 69 | 1.6 | 4.8 | 0.00 | 0.00 | 0.00 | 77 | 1009.6 |
| 20260506114004 | 2 | 62 | 1.6 | 6.4 | 0.00 | 0.00 | 0.00 | 77 | 1009.6 |
| 20260506113505 | 2 | 62 | 1.6 | 8.0 | 0.00 | 0.00 | 0.00 | 77 | 1009.6 |
| 20260506113004 | 2 | 64 | 0.0 | 8.0 | 0.00 | 0.00 | 0.00 | 78 | 1009.8 |
| 20260506112004 | 2 | 63 | 1.6 | 8.0 | 0.00 | 0.00 | 0.00 | 80 | 1009.8 |
| 20260506111505 | 2 | 63 | 1.6 | 8.0 | 0.00 | 0.00 | 0.00 | 80 | 1009.7 |
| 20260506110503 | 3 | 63 | 1.6 | 8.0 | 0.00 | 0.00 | 0.00 | 72 | 1009.7 |
| 20260506110004 | 3 | 63 | 1.6 | 8.0 | 0.00 | 0.00 | 0.00 | 72 | 1009.4 |
| 20260506105504 | 3 | 63 | 1.6 | 8.0 | 0.00 | 0.00 | 0.00 | 72 | 1009.4 |
| 20260506105004 | 3 | 63 | 1.6 | 8.0 | 0.00 | 0.00 | 0.00 | 72 | 1009.4 |
| 20260506103504 | 3 | 63 | 1.6 | 8.0 | 0.00 | 0.00 | 0.00 | 72 | 1009.3 |
| 20260506102504 | 3 | 63 | 1.6 | 8.0 | 0.00 | 0.00 | 0.00 | 72 | 1009.0 |